Time;durP1;ratioP1;P1;durP2;ratioP2;P2;SDS_P1;SDS_P2;PMS_P1;PMS_P2;Temp;Humidity;BMP_temperature;BMP_pressure;BME280_temperature;BME280_humidity;BME280_pressure;Samples;Min_cycle;Max_cycle;Signal;HPM_P1;HPM_P2
2021/03/25 06:40:04;;;;;;;29.02;19.30;;;;;;;;;;6276183;22;20051;-93
2021/03/25 06:42:35;;;;;;;27.03;19.20;;;;;;;;;;6249394;22;20019;-92
2021/03/25 06:45:05;;;;;;;31.23;20.20;;;;;;;;;;6249009;22;20019;-93
2021/03/25 06:47:40;;;;;;;28.23;20.77;;;;;;;;;;6247170;22;20008;-93
2021/03/25 06:50:07;;;;;;;29.42;21.35;;;;;;;;;;6251357;22;20067;-93
2021/03/25 06:52:36;;;;;;;28.20;20.33;;;;;;;;;;6251525;22;20011;-93
2021/03/25 06:55:11;;;;;;;31.90;22.00;;;;;;;;;;6252861;22;20453;-92
2021/03/25 06:57:46;;;;;;;32.40;21.08;;;;;;;;;;6249997;22;20055;-92
2021/03/25 07:00:14;;;;;;;36.80;23.08;;;;;;;;;;6249853;22;20039;-92
2021/03/25 07:02:48;;;;;;;31.10;23.33;;;;;;;;;;6246405;22;20046;-92
2021/03/25 07:05:18;;;;;;;32.15;22.85;;;;;;;;;;6247118;22;20445;-91
2021/03/25 07:07:46;;;;;;;35.83;24.08;;;;;;;;;;6245735;22;20011;-92
2021/03/25 07:10:16;;;;;;;37.13;24.92;;;;;;;;;;6248130;22;20090;-91
2021/03/25 07:12:46;;;;;;;35.08;22.95;;;;;;;;;;6245381;22;20004;-92
2021/03/25 07:15:24;;;;;;;35.92;24.45;;;;;;;;;;6247159;22;20436;-92
2021/03/25 07:17:52;;;;;;;41.65;24.85;;;;;;;;;;6245213;22;20011;-92
2021/03/25 07:20:28;;;;;;;37.97;26.05;;;;;;;;;;6246113;22;20065;-92
2021/03/25 07:23:02;;;;;;;35.55;25.55;;;;;;;;;;6244743;22;20039;-92
2021/03/25 07:25:29;;;;;;;38.25;27.42;;;;;;;;;;6245540;22;20317;-92
2021/03/25 07:27:58;;;;;;;;;;;;;;;;;;6246187;22;20004;-92
2021/03/25 07:30:28;;;;;;;38.17;26.50;;;;;;;;;;6246903;22;19987;-92
2021/03/25 07:33:01;;;;;;;41.42;26.58;;;;;;;;;;6244748;22;20032;-92
2021/03/25 07:35:39;;;;;;;44.17;26.50;;;;;;;;;;6245970;22;20012;-92
2021/03/25 07:38:19;;;;;;;39.20;25.92;;;;;;;;;;6245611;22;20027;-92
2021/03/25 07:40:45;;;;;;;40.25;25.90;;;;;;;;;;6245295;22;20012;-92
2021/03/25 07:43:17;;;;;;;41.03;25.98;;;;;;;;;;6245995;22;20015;-92
2021/03/25 07:45:52;;;;;;;37.83;26.45;;;;;;;;;;6245261;22;20018;-92
2021/03/25 07:48:23;;;;;;;37.60;26.98;;;;;;;;;;6246677;22;20003;-92
2021/03/25 07:51:09;;;;;;;36.67;26.98;;;;;;;;;;6240866;22;20023;-92
2021/03/25 07:53:41;;;;;;;42.13;27.63;;;;;;;;;;6245843;22;20007;-92
2021/03/25 07:56:19;;;;;;;46.60;28.98;;;;;;;;;;6221238;22;20023;-91
2021/03/25 07:58:54;;;;;;;41.75;28.52;;;;;;;;;;6245468;22;20011;-92
2021/03/25 08:01:24;;;;;;;41.17;28.63;;;;;;;;;;6222588;22;20007;-93
2021/03/25 08:04:02;;;;;;;49.13;32.67;;;;;;;;;;6242845;22;20012;-92
2021/03/25 08:06:52;;;;;;;42.85;29.70;;;;;;;;;;6220735;22;20011;-92
2021/03/25 08:09:28;;;;;;;;;;;;;;;;;;;;;
2021/03/25 08:12:00;;;;;;;47.35;31.60;;;;;;;;;;6275159;22;20075;-91
2021/03/25 08:14:28;;;;;;;48.72;32.25;;;;;;;;;;6246637;22;20007;-91
2021/03/25 08:17:05;;;;;;;47.78;33.33;;;;;;;;;;6247570;22;20012;-91
2021/03/25 08:19:34;;;;;;;53.60;32.67;;;;;;;;;;6248117;22;20090;-91
2021/03/25 08:22:00;;;;;;;48.80;31.75;;;;;;;;;;6244770;22;20062;-92
2021/03/25 08:24:36;;;;;;;47.03;30.90;;;;;;;;;;6245517;22;20457;-92
2021/03/25 08:27:08;;;;;;;47.95;32.03;;;;;;;;;;6245488;22;20400;-92
2021/03/25 08:29:50;;;;;;;46.92;30.80;;;;;;;;;;6245583;22;20093;-92
2021/03/25 08:32:35;;;;;;;43.25;30.00;;;;;;;;;;6246587;22;20035;-94
2021/03/25 08:35:09;;;;;;;44.40;29.35;;;;;;;;;;6245857;22;20016;-93
2021/03/25 08:38:14;;;;;;;43.33;29.95;;;;;;;;;;6270509;22;20092;-92
2021/03/25 08:41:09;;;;;;;47.33;29.50;;;;;;;;;;6244596;22;20081;-92
2021/03/25 08:44:01;;;;;;;32.83;22.65;;;;;;;;;;6213393;22;20011;-93
2021/03/25 08:49:44;;;;;;;29.02;21.00;;;;;;;;;;6214436;22;20015;-93
2021/03/25 08:52:15;;;;;;;27.63;20.70;;;;;;;;;;6244526;22;20091;-93
2021/03/25 08:55:18;;;;;;;24.05;19.02;;;;;;;;;;6244985;22;20031;-93
2021/03/25 08:57:55;;;;;;;24.65;18.67;;;;;;;;;;6205717;22;20460;-94
2021/03/25 09:03:58;;;;;;;22.85;18.40;;;;;;;;;;6254842;22;20008;-94
2021/03/25 09:06:31;;;;;;;20.00;16.70;;;;;;;;;;6243268;22;20095;-94
2021/03/25 09:09:28;;;;;;;20.75;17.90;;;;;;;;;;6237119;22;20007;-93
2021/03/25 09:12:30;;;;;;;21.20;16.48;;;;;;;;;;6223511;22;20003;-93
2021/03/25 09:15:02;;;;;;;21.33;16.00;;;;;;;;;;6243914;22;20073;-94
2021/03/25 09:20:58;;;;;;;23.38;16.60;;;;;;;;;;6270993;22;20012;-93
2021/03/25 09:23:49;;;;;;;26.63;17.98;;;;;;;;;;6243385;22;20012;-92
2021/03/25 09:27:00;;;;;;;21.50;16.55;;;;;;;;;;6244549;22;20016;-93
2021/03/25 09:33:04;;;;;;;18.38;15.23;;;;;;;;;;6192614;22;20353;-94
2021/03/25 09:36:10;;;;;;;19.60;15.45;;;;;;;;;;6271462;22;20437;-94
2021/03/25 09:38:37;;;;;;;18.98;15.60;;;;;;;;;;6233205;23;20028;-94
2021/03/25 09:41:28;;;;;;;21.35;15.05;;;;;;;;;;6212888;23;20012;-93
2021/03/25 09:44:28;;;;;;;18.58;15.00;;;;;;;;;;6215212;23;20014;-94
2021/03/25 09:49:58;;;;;;;17.50;14.73;;;;;;;;;;6242404;23;20016;-93
2021/03/25 09:52:39;;;;;;;15.98;14.27;;;;;;;;;;6213581;23;20019;-93
2021/03/25 09:55:26;;;;;;;18.25;14.95;;;;;;;;;;6190964;23;20009;-94
2021/03/25 09:58:09;;;;;;;;;;;;;;;;;;;;;
2021/03/25 10:00:47;;;;;;;15.82;13.75;;;;;;;;;;6242657;23;20504;-94
2021/03/25 10:03:18;;;;;;;17.55;14.10;;;;;;;;;;6216420;23;20057;-94
2021/03/25 10:05:53;;;;;;;18.77;14.48;;;;;;;;;;6190195;23;20015;-95
2021/03/25 10:11:51;;;;;;;15.45;13.07;;;;;;;;;;6243164;23;20384;-94
2021/03/25 10:14:45;;;;;;;13.38;11.98;;;;;;;;;;6215109;23;20095;-95
2021/03/25 10:17:42;;;;;;;12.63;11.32;;;;;;;;;;6179869;23;20017;-94
2021/03/25 10:20:21;;;;;;;11.80;9.82;;;;;;;;;;6154124;23;20354;-94
2021/03/25 10:23:11;;;;;;;10.85;9.75;;;;;;;;;;6130920;23;20028;-94
2021/03/25 10:25:57;;;;;;;9.20;8.15;;;;;;;;;;6179117;23;20036;-94
2021/03/25 10:28:38;;;;;;;14.80;9.13;;;;;;;;;;6178590;23;20073;-94
2021/03/25 10:31:44;;;;;;;9.65;8.57;;;;;;;;;;6153625;23;20025;-94
2021/03/25 10:38:01;;;;;;;9.35;8.40;;;;;;;;;;6147169;23;20023;-94
2021/03/25 10:40:50;;;;;;;;;;;;;;;;;;;;;
2021/03/25 10:43:41;;;;;;;10.93;8.63;;;;;;;;;;6242206;23;20111;-94
2021/03/25 10:46:38;;;;;;;9.68;8.05;;;;;;;;;;6214849;23;20022;-94
2021/03/25 10:49:57;;;;;;;;;;;;;;;;;;;;;
2021/03/25 10:52:56;;;;;;;9.98;8.43;;;;;;;;;;6192033;23;20079;-93
2021/03/25 10:55:53;;;;;;;;;;;;;;;;;;;;;
2021/03/25 10:58:49;;;;;;;9.90;8.90;;;;;;;;;;6242555;23;20079;-94
2021/03/25 11:01:56;;;;;;;10.07;9.07;;;;;;;;;;6216035;23;20016;-93
2021/03/25 11:04:44;;;;;;;10.10;8.88;;;;;;;;;;6216132;23;20012;-93
2021/03/25 11:07:23;;;;;;;14.18;8.95;;;;;;;;;;6215436;23;20016;-94
2021/03/25 11:10:20;;;;;;;10.35;8.65;;;;;;;;;;6214235;23;20433;-93
2021/03/25 11:16:26;;;;;;;;;;;;;;;;;;;;;
2021/03/25 11:22:14;;;;;;;11.18;9.98;;;;;;;;;;6215979;23;19914;-93
2021/03/25 11:27:59;;;;;;;;;;;;;;;;;;;;;
2021/03/25 11:30:52;;;;;;;11.45;9.68;;;;;;;;;;6217723;23;20087;-93
2021/03/25 11:36:43;;;;;;;11.20;9.85;;;;;;;;;;6171303;23;20082;-94
2021/03/25 11:46:00;;;;;;;11.10;9.30;;;;;;;;;;6205929;23;20019;-94
2021/03/25 11:48:45;;;;;;;;;;;;;;;;;;;;;
2021/03/25 11:52:09;;;;;;;;;;;;;;;;;;;;;
2021/03/25 11:54:51;;;;;;;13.45;10.98;;;;;;;;;;6190843;23;20123;-96
2021/03/25 11:57:58;;;;;;;10.45;9.45;;;;;;;;;;6185505;23;20017;-93
2021/03/25 12:04:09;;;;;;;12.18;10.98;;;;;;;;;;6215726;23;20043;-93
2021/03/25 12:07:03;;;;;;;12.90;10.88;;;;;;;;;;6214132;23;20098;-92
2021/03/25 12:09:36;;;;;;;12.02;10.77;;;;;;;;;;6215304;23;20001;-91
2021/03/25 12:12:13;;;;;;;14.35;12.20;;;;;;;;;;6214076;23;20075;-91
2021/03/25 12:14:43;;;;;;;14.68;11.80;;;;;;;;;;6187886;23;20039;-93
2021/03/25 12:17:16;;;;;;;14.70;11.68;;;;;;;;;;6211657;23;20008;-92
2021/03/25 12:20:05;;;;;;;12.73;11.30;;;;;;;;;;6237044;23;20020;-91
2021/03/25 12:22:41;;;;;;;12.05;10.77;;;;;;;;;;6187033;23;20012;-91
2021/03/25 12:28:28;;;;;;;14.25;12.20;;;;;;;;;;6232803;23;20008;-90
2021/03/25 12:30:57;;;;;;;17.45;12.13;;;;;;;;;;6202915;23;20019;-91
2021/03/25 12:33:32;;;;;;;13.85;12.10;;;;;;;;;;6191306;23;20009;-92
2021/03/25 12:36:11;;;;;;;18.23;11.63;;;;;;;;;;6213986;23;20095;-91
2021/03/25 12:38:42;;;;;;;14.18;12.45;;;;;;;;;;6213789;23;20024;-91
2021/03/25 12:41:15;;;;;;;14.13;11.50;;;;;;;;;;6187279;23;20028;-92
2021/03/25 12:43:44;;;;;;;12.68;11.23;;;;;;;;;;6213341;23;20012;-92
2021/03/25 12:46:11;;;;;;;16.80;11.88;;;;;;;;;;6215564;23;20508;-91
2021/03/25 12:48:43;;;;;;;12.18;10.98;;;;;;;;;;6216354;23;20008;-93
2021/03/25 12:51:18;;;;;;;14.32;11.65;;;;;;;;;;6216223;23;20011;-92
2021/03/25 12:54:01;;;;;;;13.25;11.07;;;;;;;;;;6214585;23;20012;-92
2021/03/25 12:56:38;;;;;;;14.93;11.70;;;;;;;;;;6215050;23;20040;-93
2021/03/25 12:59:08;;;;;;;14.13;11.60;;;;;;;;;;6215175;23;20008;-93
2021/03/25 13:01:36;;;;;;;13.25;10.95;;;;;;;;;;6215782;23;20015;-92
2021/03/25 13:04:05;;;;;;;12.98;11.38;;;;;;;;;;6240139;23;20007;-91
2021/03/25 13:06:32;;;;;;;13.70;10.93;;;;;;;;;;6215739;23;20071;-92
2021/03/25 13:08:58;;;;;;;12.25;10.35;;;;;;;;;;6214762;23;20008;-92
2021/03/25 13:11:26;;;;;;;14.70;10.45;;;;;;;;;;6214115;23;20008;-91
2021/03/25 13:14:03;;;;;;;13.70;10.60;;;;;;;;;;6213771;23;20016;-91
2021/03/25 13:16:32;;;;;;;12.87;10.70;;;;;;;;;;6242461;23;20008;-90
2021/03/25 13:19:06;;;;;;;12.77;11.35;;;;;;;;;;6216915;23;20031;-91
2021/03/25 13:21:34;;;;;;;15.25;10.15;;;;;;;;;;6217776;23;20015;-93
2021/03/25 13:24:01;;;;;;;13.52;10.90;;;;;;;;;;6215645;23;20012;-92
2021/03/25 13:26:27;;;;;;;14.18;11.52;;;;;;;;;;6216452;23;20373;-93
2021/03/25 13:28:54;;;;;;;12.40;10.23;;;;;;;;;;6216844;23;20070;-93
2021/03/25 13:31:24;;;;;;;13.05;10.70;;;;;;;;;;6218022;23;20460;-92
2021/03/25 13:33:50;;;;;;;11.48;9.77;;;;;;;;;;6214045;23;20008;-91
2021/03/25 13:36:19;;;;;;;10.85;9.35;;;;;;;;;;6216992;23;20012;-91
2021/03/25 13:38:54;;;;;;;13.88;10.45;;;;;;;;;;6213758;23;20024;-91
2021/03/25 13:41:21;;;;;;;12.45;10.00;;;;;;;;;;6195631;23;20028;-91
2021/03/25 13:43:48;;;;;;;13.40;9.60;;;;;;;;;;6242220;23;20053;-91
2021/03/25 13:46:22;;;;;;;10.82;9.13;;;;;;;;;;6213941;23;20094;-91
2021/03/25 13:48:49;;;;;;;13.38;10.50;;;;;;;;;;6215568;23;20030;-91
2021/03/25 13:51:20;;;;;;;11.55;9.75;;;;;;;;;;6217414;23;20004;-90
2021/03/25 13:53:47;;;;;;;10.88;9.25;;;;;;;;;;6215895;23;20015;-91
2021/03/25 13:56:16;;;;;;;13.45;10.02;;;;;;;;;;6214487;23;20012;-91
2021/03/25 13:58:42;;;;;;;10.20;8.70;;;;;;;;;;6216410;23;20043;-91
2021/03/25 14:01:12;;;;;;;10.77;7.72;;;;;;;;;;6218033;23;20438;-89
2021/03/25 14:03:39;;;;;;;10.07;8.25;;;;;;;;;;6218582;23;20045;-90
2021/03/25 14:06:13;;;;;;;9.68;8.23;;;;;;;;;;6217404;23;20008;-90
2021/03/25 14:08:41;;;;;;;11.95;9.57;;;;;;;;;;6218537;23;20456;-92
2021/03/25 14:11:10;;;;;;;10.00;8.55;;;;;;;;;;6218672;23;20016;-91
2021/03/25 14:13:37;;;;;;;8.57;6.57;;;;;;;;;;6217748;23;20012;-91
2021/03/25 14:16:03;;;;;;;7.60;6.57;;;;;;;;;;6216073;23;20012;-91
2021/03/25 14:18:36;;;;;;;9.50;7.10;;;;;;;;;;6217816;23;20023;-91
2021/03/25 14:21:05;;;;;;;10.23;7.15;;;;;;;;;;6218683;23;20008;-90
2021/03/25 14:23:32;;;;;;;9.55;7.78;;;;;;;;;;6218631;23;20029;-91
2021/03/25 14:25:58;;;;;;;12.30;7.28;;;;;;;;;;6220865;23;20019;-91
2021/03/25 14:28:27;;;;;;;9.40;7.32;;;;;;;;;;6193230;23;20005;-91
2021/03/25 14:31:04;;;;;;;10.90;7.43;;;;;;;;;;6218181;23;20028;-91
2021/03/25 14:33:35;;;;;;;11.05;7.85;;;;;;;;;;6219421;23;20023;-91
2021/03/25 14:36:05;;;;;;;9.68;7.65;;;;;;;;;;6219093;23;20453;-91
2021/03/25 14:38:47;;;;;;;9.32;8.20;;;;;;;;;;6219575;23;20463;-91
2021/03/25 14:41:13;;;;;;;10.00;7.50;;;;;;;;;;6218359;23;20012;-91
2021/03/25 14:43:42;;;;;;;11.20;8.10;;;;;;;;;;6218384;23;20004;-91
2021/03/25 14:46:12;;;;;;;11.95;7.75;;;;;;;;;;6218709;23;20012;-91
2021/03/25 14:48:38;;;;;;;10.20;7.68;;;;;;;;;;6218499;23;20042;-91
2021/03/25 14:51:19;;;;;;;11.90;8.45;;;;;;;;;;6219774;23;20011;-91
2021/03/25 14:54:03;;;;;;;10.07;8.98;;;;;;;;;;6218251;23;20001;-91
2021/03/25 14:56:29;;;;;;;12.98;8.77;;;;;;;;;;6193361;23;20016;-91
2021/03/25 14:58:59;;;;;;;11.98;7.95;;;;;;;;;;6217895;23;20007;-91
2021/03/25 15:01:28;;;;;;;10.55;8.13;;;;;;;;;;6219416;23;20015;-91
2021/03/25 15:03:54;;;;;;;9.65;7.93;;;;;;;;;;6192561;23;20023;-91
2021/03/25 15:06:23;;;;;;;11.17;7.37;;;;;;;;;;6218170;23;20012;-91
2021/03/25 15:08:52;;;;;;;13.63;8.25;;;;;;;;;;6216961;23;20008;-92
2021/03/25 15:11:22;;;;;;;12.25;8.07;;;;;;;;;;6243481;23;20012;-92
2021/03/25 15:13:51;;;;;;;13.27;8.40;;;;;;;;;;6215569;23;20445;-92
2021/03/25 15:16:17;;;;;;;9.88;7.50;;;;;;;;;;6190758;23;20027;-92
2021/03/25 15:18:43;;;;;;;11.90;7.80;;;;;;;;;;6215062;23;20016;-92
2021/03/25 15:21:10;;;;;;;9.50;7.50;;;;;;;;;;6216021;23;20235;-92
2021/03/25 15:23:40;;;;;;;9.00;7.07;;;;;;;;;;6217826;23;20460;-92
2021/03/25 15:26:08;;;;;;;10.30;6.70;;;;;;;;;;6193346;23;20097;-93
2021/03/25 15:28:35;;;;;;;12.23;8.52;;;;;;;;;;6217666;23;20030;-92
2021/03/25 15:31:04;;;;;;;11.68;7.50;;;;;;;;;;6192111;23;20012;-92
2021/03/25 15:33:33;;;;;;;10.15;7.28;;;;;;;;;;6217497;23;20007;-92
2021/03/25 15:36:02;;;;;;;13.07;8.80;;;;;;;;;;6191918;23;20491;-92
2021/03/25 15:38:31;;;;;;;10.27;7.50;;;;;;;;;;6218111;23;20015;-92
2021/03/25 15:41:06;;;;;;;15.57;8.82;;;;;;;;;;6189150;23;20028;-93
2021/03/25 15:43:35;;;;;;;13.45;7.53;;;;;;;;;;6216579;23;20008;-92
2021/03/25 15:46:02;;;;;;;13.13;7.90;;;;;;;;;;6216485;23;20449;-93
2021/03/25 15:48:28;;;;;;;9.52;6.72;;;;;;;;;;6217457;23;20472;-92
2021/03/25 15:50:58;;;;;;;10.02;6.53;;;;;;;;;;6217083;23;20058;-93
2021/03/25 15:53:30;;;;;;;10.45;7.55;;;;;;;;;;6217782;23;20015;-92
2021/03/25 15:55:59;;;;;;;17.00;6.90;;;;;;;;;;6216877;23;20012;-92
2021/03/25 15:58:25;;;;;;;14.30;7.15;;;;;;;;;;6192942;23;20043;-92
2021/03/25 16:00:59;;;;;;;11.18;6.88;;;;;;;;;;6217396;23;20012;-93
2021/03/25 16:03:26;;;;;;;8.55;5.65;;;;;;;;;;6216543;23;20005;-93
2021/03/25 16:05:54;;;;;;;11.77;7.00;;;;;;;;;;6216108;23;20012;-92
2021/03/25 16:08:21;;;;;;;10.95;6.78;;;;;;;;;;6191104;23;20016;-93
2021/03/25 16:10:51;;;;;;;13.73;7.00;;;;;;;;;;6217313;23;20019;-93
2021/03/25 16:13:17;;;;;;;10.18;6.78;;;;;;;;;;6218080;23;20221;-93
2021/03/25 16:15:45;;;;;;;8.77;5.88;;;;;;;;;;6215126;23;20016;-93
2021/03/25 16:18:12;;;;;;;11.10;6.60;;;;;;;;;;6216656;23;20023;-92
2021/03/25 16:20:42;;;;;;;10.65;6.32;;;;;;;;;;6215960;23;20445;-91
2021/03/25 16:23:11;;;;;;;9.93;6.38;;;;;;;;;;6219733;23;20035;-93
2021/03/25 16:25:40;;;;;;;11.00;5.90;;;;;;;;;;6216038;23;20365;-91
2021/03/25 16:28:09;;;;;;;11.88;6.85;;;;;;;;;;6215999;23;20422;-92
2021/03/25 16:30:36;;;;;;;8.80;5.55;;;;;;;;;;6191488;23;20016;-91
2021/03/25 16:33:03;;;;;;;9.70;5.95;;;;;;;;;;6215644;23;20441;-89
2021/03/25 16:35:29;;;;;;;9.10;6.70;;;;;;;;;;6216205;23;20012;-91
2021/03/25 16:37:57;;;;;;;9.00;6.07;;;;;;;;;;6214938;23;20103;-91
2021/03/25 16:40:24;;;;;;;11.25;5.60;;;;;;;;;;6215764;23;20087;-91
2021/03/25 16:42:51;;;;;;;8.13;5.85;;;;;;;;;;6215872;23;20008;-92
2021/03/25 16:45:19;;;;;;;12.52;6.25;;;;;;;;;;6215744;23;20473;-92
2021/03/25 16:47:50;;;;;;;9.27;5.95;;;;;;;;;;6215166;23;20008;-93
2021/03/25 16:50:18;;;;;;;14.68;6.75;;;;;;;;;;6216038;23;20008;-93
2021/03/25 16:52:47;;;;;;;9.40;5.68;;;;;;;;;;6216839;23;20096;-93
2021/03/25 16:55:13;;;;;;;10.05;6.28;;;;;;;;;;6217599;23;20012;-94
2021/03/25 16:57:43;;;;;;;12.00;6.40;;;;;;;;;;6217195;23;20008;-91
2021/03/25 17:00:10;;;;;;;10.95;6.07;;;;;;;;;;6217771;23;20303;-93
2021/03/25 17:02:37;;;;;;;11.27;6.55;;;;;;;;;;6217737;23;20008;-91
2021/03/25 17:05:04;;;;;;;12.15;5.90;;;;;;;;;;6217249;23;20014;-92
2021/03/25 17:07:30;;;;;;;9.48;5.00;;;;;;;;;;6220637;23;20042;-93
2021/03/25 17:09:57;;;;;;;10.45;5.90;;;;;;;;;;6198697;23;20044;-90
2021/03/25 17:12:24;;;;;;;9.88;5.40;;;;;;;;;;6235124;23;20008;-90
2021/03/25 17:14:53;;;;;;;;;;;;;;;;;;6241986;23;20008;-91
2021/03/25 17:17:30;;;;;;;10.93;6.25;;;;;;;;;;6270520;23;19911;-90
2021/03/25 17:23:27;;;;;;;13.52;6.65;;;;;;;;;;6153899;23;20038;-90
